createdAt,value
2022-12-19T06:38:52.922Z,26.94
2022-12-19T06:45:56.912Z,30.19
2022-12-19T06:53:01.813Z,31.24
2022-12-19T07:00:04.299Z,31.50
2022-12-19T07:07:06.345Z,28.34
2022-12-19T07:14:08.211Z,23.80
2022-12-19T07:21:12.582Z,21.69
2022-12-19T07:28:14.320Z,21.05
2022-12-19T07:35:18.684Z,20.79
2022-12-19T07:42:21.407Z,21.16
2022-12-19T07:49:23.198Z,21.52
2022-12-19T07:56:25.078Z,21.77
2022-12-19T08:03:28.902Z,21.92
2022-12-19T08:10:30.953Z,22.00
2022-12-19T08:17:33.936Z,22.10
2022-12-19T08:24:35.775Z,22.13
2022-12-19T08:31:37.495Z,22.14
2022-12-19T08:38:42.033Z,22.15
2022-12-19T08:45:43.788Z,22.12
2022-12-19T08:52:45.632Z,22.19
2022-12-19T08:59:48.901Z,22.34
2022-12-19T09:06:51.460Z,22.60
2022-12-19T09:13:53.248Z,22.75
2022-12-19T09:20:55.596Z,22.77
2022-12-19T09:28:26.399Z,22.74
2022-12-19T09:35:27.031Z,22.73
2022-12-19T09:42:47.098Z,22.75
2022-12-19T09:49:51.123Z,22.65
2022-12-19T09:56:56.061Z,22.54
2022-12-19T10:04:08.520Z,22.42
2022-12-19T10:12:42.258Z,22.42
2022-12-19T10:18:57.886Z,22.43
2022-12-19T10:26:20.518Z,22.46
2022-12-19T10:33:33.445Z,22.42
2022-12-19T10:41:39.281Z,22.42
2022-12-19T10:48:45.735Z,22.55
2022-12-19T10:55:51.202Z,22.58
2022-12-19T11:03:26.548Z,22.55
2022-12-19T11:12:03.627Z,22.65
2022-12-19T11:27:50.961Z,22.74
2022-12-19T11:30:45.724Z,22.82
2022-12-19T11:33:17.701Z,22.89
2022-12-19T11:40:48.931Z,22.94
2022-12-19T11:48:23.473Z,23.05
2022-12-19T11:55:51.983Z,23.00
2022-12-19T12:03:34.641Z,22.91
2022-12-19T12:17:21.247Z,22.91
2022-12-19T12:31:26.566Z,22.91
2022-12-19T12:31:51.154Z,22.81
2022-12-19T12:35:31.720Z,22.74
2022-12-19T12:42:12.384Z,22.68
2022-12-19T12:49:34.738Z,22.61
2022-12-19T12:56:36.639Z,22.56
2022-12-19T13:03:42.286Z,22.57
2022-12-19T13:10:57.537Z,22.54
2022-12-19T13:18:31.299Z,22.54
2022-12-19T13:25:36.597Z,22.54
2022-12-19T13:32:41.396Z,22.51
2022-12-19T13:40:07.459Z,22.50
2022-12-19T13:47:13.136Z,22.46
2022-12-19T13:54:34.739Z,22.45
2022-12-19T14:01:37.392Z,22.47
2022-12-19T14:08:40.887Z,22.55
2022-12-19T14:15:46.148Z,22.54
2022-12-19T14:22:59.222Z,22.52
2022-12-19T14:30:31.083Z,22.45
2022-12-19T14:38:13.122Z,22.39
2022-12-19T14:51:51.650Z,22.31
2022-12-19T14:54:30.699Z,22.26
2022-12-19T14:59:59.455Z,22.23
2022-12-19T15:07:09.127Z,22.20
2022-12-19T15:14:56.430Z,22.16
2022-12-19T15:21:36.531Z,22.14
2022-12-19T15:28:41.504Z,22.20
2022-12-19T15:35:45.130Z,22.24
2022-12-19T15:42:49.297Z,22.23
2022-12-19T15:49:51.078Z,22.21
2022-12-19T15:56:55.516Z,22.12
2022-12-19T16:03:57.494Z,22.05
2022-12-19T16:11:01.673Z,21.94
2022-12-19T16:18:04.311Z,21.86
2022-12-19T16:25:06.349Z,21.82
2022-12-19T16:32:12.523Z,21.78
2022-12-19T16:39:14.807Z,21.79
2022-12-19T16:46:19.372Z,21.78
2022-12-19T16:53:21.252Z,21.83
2022-12-19T17:00:23.465Z,21.81
2022-12-19T17:07:32.135Z,21.82
2022-12-19T17:14:35.287Z,21.81
2022-12-19T17:21:37.312Z,21.77
2022-12-19T17:28:48.283Z,21.72
2022-12-19T17:35:50.202Z,21.68
2022-12-19T17:42:52.783Z,21.58
2022-12-19T17:49:56.681Z,21.59
2022-12-19T17:57:02.734Z,21.55
2022-12-19T18:04:05.567Z,21.58
2022-12-19T18:11:10.467Z,21.64
2022-12-19T18:18:27.827Z,21.73
2022-12-19T18:25:31.241Z,21.78
2022-12-19T18:32:32.985Z,21.87
2022-12-19T18:39:36.775Z,21.91
2022-12-19T18:46:42.175Z,21.86
2022-12-19T18:53:44.695Z,21.84
2022-12-19T19:00:48.683Z,21.87
2022-12-19T19:07:57.539Z,21.88
2022-12-19T19:15:01.835Z,21.84
2022-12-19T19:22:29.781Z,21.73
2022-12-19T19:29:41.255Z,21.73
2022-12-19T19:37:15.044Z,21.75
2022-12-19T19:44:18.398Z,21.84
2022-12-19T19:51:21.580Z,21.94
2022-12-19T19:58:24.580Z,21.96
2022-12-19T20:05:26.441Z,21.94
2022-12-19T20:12:28.154Z,21.97
2022-12-19T20:19:29.899Z,21.98
2022-12-19T20:26:33.057Z,21.98
2022-12-19T20:33:36.303Z,21.91
2022-12-19T20:40:38.143Z,21.85
2022-12-19T20:47:39.950Z,21.82
2022-12-19T20:54:42.967Z,21.76
2022-12-19T21:01:45.459Z,21.75
2022-12-19T21:08:47.406Z,21.69
2022-12-19T21:15:56.964Z,21.68
2022-12-19T21:22:58.766Z,21.72
2022-12-19T21:30:00.541Z,21.67
2022-12-19T21:37:02.307Z,21.61
2022-12-19T21:44:05.295Z,21.58
2022-12-19T21:51:08.226Z,21.48
2022-12-19T21:58:10.003Z,21.38
2022-12-19T22:05:11.743Z,21.29
2022-12-19T22:12:13.607Z,21.21
2022-12-19T22:19:17.155Z,21.15
2022-12-19T22:26:21.582Z,21.14
2022-12-19T22:33:23.341Z,21.10
2022-12-19T22:40:25.125Z,21.09
2022-12-19T22:47:26.903Z,21.11
2022-12-19T22:54:28.759Z,21.09
2022-12-19T23:01:33.497Z,21.03
2022-12-19T23:08:35.606Z,21.00
2022-12-19T23:15:37.334Z,20.99
2022-12-19T23:22:39.060Z,20.95
2022-12-19T23:29:40.842Z,20.89
2022-12-19T23:44:04.406Z,20.83
2022-12-19T23:51:08.707Z,20.81
2022-12-19T23:58:15.469Z,20.78
